• Join FlightAware (Why Join?)
  • Login
  • US Flag 
Gobble Gobble! 
02:41PM EST


 

Airport Tracker/Info


-or-


 

Live Flight TrackerFlight Track Log ✈ SWA975 ✈ 20-Apr-2013 ✈ KSDF - KSTL

Flight Track Log - Related Links

Times and Time Zones

All times are in EDT time to prevent confusion due to time zone crossing. See the SWA975 flight status page for this flight to view local times or setup timezone preferences in your user account.

Time Position Orientation Groundspeed Altitude Reporting Facility
EDT Latitude Longitude Course Direction KTS MPH feet Rate Location/Type
04:33PM 38.1808 -85.7808 281° West 172 198 2,700  Level FAA TRACON SMA TRACON (SMA)
04:34PM 38.1803 -85.8094 269° West 207 238 4,200 4,620 Climbing FAA TRACON SMA TRACON (SMA)
04:34PM 38.1797 -85.8331 268° West 216 249 5,800 4,500 Climbing FAA TRACON SMA TRACON (SMA)
04:34PM 38.1792 -85.8575 268° West 223 257 7,200 3,960 Climbing FAA TRACON SMA TRACON (SMA)
04:35PM 38.1789 -85.8836 269° West 235 270 8,400 4,200 Climbing FAA TRACON SMA TRACON (SMA)
04:35PM 38.1717 -85.9169 255° West 257 296 10,000 3,900 Climbing FAA TRACON SMA TRACON (SMA)
04:35PM 38.1597 -85.9425 239° Southwest 271 312 11,100 2,820 Climbing FAA TRACON SMA TRACON (SMA)
04:36PM 38.1431 -85.9769 238° Southwest 295 339 11,900 3,120 Climbing FAA TRACON SMA TRACON (SMA)
04:36PM 38.1308 -86.0081 243° Southwest 316 364 13,200 3,840 Climbing FAA TRACON SMA TRACON (SMA)
04:36PM 38.1228 -86.0592 259° West 322 371 15,000 4,020 Climbing FAA TRACON SMA TRACON (SMA)
04:37PM 38.1183 -86.1031 263° West 325 374 16,500 3,420 Climbing FAA TRACON SMA TRACON (SMA)
04:37PM 38.1125 -86.1569 262° West 334 384 18,000 3,720 Climbing FAA TRACON SMA TRACON (SMA)
04:38PM 38.1075 -86.2028 262° West 339 390 19,700 4,320 Climbing FAA TRACON SMA TRACON (SMA)
04:38PM 38.1036 -86.2392 262° West 339 390 20,900 3,300 Climbing FAA TRACON SMA TRACON (SMA)
04:38PM 38.1000 -86.2758 263° West 341 392 21,900 3,060 Climbing FAA TRACON SMA TRACON (SMA)
04:39PM 38.0953 -86.3131 261° West 345 397 22,900 3,120 Climbing FAA TRACON SMA TRACON (SMA)
04:39PM 38.0903 -86.3611 262° West 354 407 24,000 2,880 Climbing FAA TRACON SMA TRACON (SMA)
04:39PM 38.0869 -86.4000 264° West 359 413 24,900 3,000 Climbing FAA TRACON SMA TRACON (SMA)
04:40PM 38.0806 -86.4489 261° West 364 419 26,000 3,600 Climbing FAA TRACON SMA TRACON (SMA)
04:40PM 38.0769 -86.4878 263° West 365 420 27,300 3,900 Climbing FAA TRACON SMA TRACON (SMA)
04:40PM 38.0733 -86.5261 263° West 358 412 28,600 3,600 Climbing FAA TRACON SMA TRACON (SMA)
04:41PM 38.0678 -86.5731 261° West 349 402 29,700 2,100 Climbing FAA TRACON SMA TRACON (SMA)
04:41PM 38.0639 -86.6100 262° West 346 398 30,000 420 Climbing FAA TRACON SMA TRACON (SMA)
04:41PM 38.0597 -86.6483 262° West 351 404 30,000  Level FAA TRACON SMA TRACON (SMA)
04:42PM 38.0542 -86.6972 262° West 362 417 30,000  Level FAA TRACON SMA TRACON (SMA)
04:42PM 38.0500 -86.7369 262° West 368 423 30,000  Level FAA TRACON SMA TRACON (SMA)
04:42PM 38.0461 -86.7764 263° West 370 426 30,000  Level FAA TRACON SMA TRACON (SMA)
04:43PM 38.0406 -86.8258 262° West 368 423 30,000  Level FAA TRACON SMA TRACON (SMA)
04:43PM 38.0369 -86.8658 263° West 370 426 30,000  Level FAA TRACON SMA TRACON (SMA)
04:43PM 38.0331 -86.9058 263° West 371 427 30,000  Level FAA TRACON SMA TRACON (SMA)
04:44PM 38.0267 -86.9553 261° West 371 427 30,000  Level FAA TRACON SMA TRACON (SMA)
04:44PM 38.0256 -86.9753 266° West 370 426 30,000  Level FAA TRACON SMA TRACON (SMA)
04:45PM 38.0031 -87.1331 260° West 373 429 30,000  Level Indianapolis Center
04:46PM 37.9878 -87.2644 262° West 373 429 30,000  Level Indianapolis Center
04:47PM 37.9719 -87.3967 261° West 374 430 30,000  Level Indianapolis Center
04:48PM 37.9564 -87.5286 262° West 375 432 30,000  Level Indianapolis Center
04:49PM 37.9408 -87.6614 262° West 378 435 30,000  Level Indianapolis Center
04:50PM 37.9239 -87.7936 261° West 378 435 30,000  Level Indianapolis Center
04:51PM 37.9056 -87.9242 260° West 377 434 30,000  Level Indianapolis Center
04:52PM 37.8886 -88.0572 261° West 379 436 30,000  Level Indianapolis Center
04:53PM 37.8664 -88.2156 260° West 379 436 30,000  Level Indianapolis Center
04:54PM 37.8489 -88.3467 260° West 379 436 30,000 -480 Level Indianapolis Center
04:55PM 37.8361 -88.4789 263° West 378 435 29,100 -960 Descending Indianapolis Center
04:56PM 37.8239 -88.6083 263° West 371 427 28,100 -1,020 Descending Indianapolis Center
04:57PM 37.7836 -88.7275 247° West 368 423 27,100 -1,320 Descending Indianapolis Center
04:59PM 37.7392 -88.8583 247° West 362 417 25,200 -1,380 Descending Kansas City Center
05:00PM 37.7347 -88.9783 267° West 361 415 24,000 -600 Descending Kansas City Center
05:01PM 37.7631 -89.1181 284° West 348 400 24,000  Level Kansas City Center
05:02PM 37.7875 -89.2383 284° West 350 403 24,000  Level Kansas City Center
05:03PM 37.8147 -89.3581 286° West 353 406 24,000  Level Kansas City Center
05:04PM 37.8433 -89.4856 286° West 353 406 24,000 -60 Level Kansas City Center
05:05PM 37.8694 -89.6078 285° West 357 411 23,900 -1,200 Descending Kansas City Center
05:06PM 37.8967 -89.7347 285° West 350 403 21,600 -2,280 Descending Kansas City Center
05:06PM 37.9014 -89.7228 63° Northeast 332 382 20,600 -2,160 Descending FAA TRACON SMA TRACON (SMA)
05:07PM 37.9106 -89.7661 285° West 331 381 19,800 -2,100 Descending FAA TRACON SMA TRACON (SMA)
05:07PM 37.9178 -89.7997 285° West 331 381 19,200 -2,040 Descending FAA TRACON SMA TRACON (SMA)
05:07PM 37.9256 -89.8328 287° West 326 375 18,500 -2,280 Descending FAA TRACON SMA TRACON (SMA)
05:08PM 37.9344 -89.8747 285° West 323 372 17,700 -2,400 Descending FAA TRACON SMA TRACON (SMA)
05:08PM 37.9478 -89.9047 299° West 319 367 16,900 -2,220 Descending FAA TRACON SMA TRACON (SMA)
05:08PM 37.9714 -89.9247 326° Northwest 326 375 16,200 -2,400 Descending FAA TRACON SMA TRACON (SMA)
05:09PM 38.0033 -89.9436 335° Northwest 331 381 15,300 -2,340 Descending FAA TRACON SMA TRACON (SMA)
05:09PM 38.0286 -89.9589 335° Northwest 328 377 14,700 -1,980 Descending FAA TRACON SMA TRACON (SMA)
05:09PM 38.0531 -89.9750 333° Northwest 323 372 14,000 -2,340 Descending FAA TRACON SMA TRACON (SMA)
05:10PM 38.0842 -89.9900 339° North 313 360 13,200 -2,160 Descending FAA TRACON SMA TRACON (SMA)
05:10PM 38.1081 -90.0039 335° Northwest 309 356 12,600 -1,920 Descending FAA TRACON SMA TRACON (SMA)
05:10PM 38.1339 -90.0106 349° North 304 350 11,900 -2,280 Descending FAA TRACON SMA TRACON (SMA)
05:11PM 38.1667 -90.0067 North 306 352 11,100 -1,980 Descending FAA TRACON SMA TRACON (SMA)
05:11PM 38.1919 -90.0056 North 306 352 10,600 -1,020 Descending FAA TRACON SMA TRACON (SMA)
05:11PM 38.2231 -90.0028 North 294 338 10,400 -600 Descending FAA TRACON SMA TRACON (SMA)
05:12PM 38.2461 -90.0006 North 281 323 10,200 -960 Descending FAA TRACON SMA TRACON (SMA)
05:12PM 38.2683 -89.9978 North 267 307 9,800 -1,500 Descending FAA TRACON SMA TRACON (SMA)
05:12PM 38.2906 -89.9944 North 263 303 9,200 -1,920 Descending FAA TRACON SMA TRACON (SMA)
05:13PM 38.3186 -89.9906 North 261 300 8,500 -1,800 Descending FAA TRACON SMA TRACON (SMA)
05:13PM 38.3408 -89.9883 North 263 303 8,000 -1,680 Descending FAA TRACON SMA TRACON (SMA)
05:13PM 38.3689 -89.9839 North 263 303 7,400 -1,680 Descending FAA TRACON SMA TRACON (SMA)
05:14PM 38.3906 -89.9814 North 260 299 6,900 -1,440 Descending FAA TRACON SMA TRACON (SMA)
05:14PM 38.4128 -89.9789 North 258 297 6,500 -1,560 Descending FAA TRACON SMA TRACON (SMA)
05:14PM 38.4347 -89.9767 North 257 296 5,900 -1,680 Descending FAA TRACON SMA TRACON (SMA)
05:15PM 38.4617 -89.9764 360° North 257 296 5,400 -1,200 Descending FAA TRACON SMA TRACON (SMA)
05:15PM 38.4839 -89.9758 North 258 297 5,100 -600 Descending FAA TRACON SMA TRACON (SMA)
05:15PM 38.5106 -89.9758 360° North 253 291 5,000 -180 Descending FAA TRACON SMA TRACON (SMA)
05:16PM 38.5350 -89.9778 356° North 236 272 5,000  Level FAA TRACON SMA TRACON (SMA)
05:16PM 38.5486 -89.9847 338° Northwest 230 265 5,000  Level FAA TRACON SMA TRACON (SMA)
05:16PM 38.5650 -89.9967 330° Northwest 223 257 5,000  Level FAA TRACON SMA TRACON (SMA)
05:17PM 38.5850 -90.0117 330° Northwest 219 252 5,000  Level FAA TRACON SMA TRACON (SMA)
05:17PM 38.6008 -90.0239 329° Northwest 215 247 5,000 -480 Level FAA TRACON SMA TRACON (SMA)
05:17PM 38.6150 -90.0461 309° West 214 246 4,700 -900 Descending FAA TRACON SMA TRACON (SMA)
05:18PM 38.6258 -90.0658 305° West 216 249 4,400 -780 Descending FAA TRACON SMA TRACON (SMA)
05:18PM 38.6350 -90.0850 301° West 209 241 4,200 -780 Descending FAA TRACON SMA TRACON (SMA)
05:18PM 38.6450 -90.1061 301° West 184 212 3,900 -780 Descending FAA TRACON SMA TRACON (SMA)
05:19PM 38.6525 -90.1206 304° West 166 191 3,700 -780 Descending FAA TRACON SMA TRACON (SMA)
05:19PM 38.6589 -90.1339 302° West 147 169 3,400 -780 Descending FAA TRACON SMA TRACON (SMA)
05:19PM 38.6650 -90.1461 303° West 137 158 3,200 -780 Descending FAA TRACON SMA TRACON (SMA)
05:20PM 38.6728 -90.1614 303° West 131 151 2,900 -780 Descending FAA TRACON SMA TRACON (SMA)
05:20PM 38.6786 -90.1731 303° West 129 148 2,700 -780 Descending FAA TRACON SMA TRACON (SMA)
05:20PM 38.6861 -90.1886 302° West 132 152 2,400 -780 Descending FAA TRACON SMA TRACON (SMA)
05:21PM 38.6919 -90.2008 301° West 133 153 2,200 -780 Descending FAA TRACON SMA TRACON (SMA)
05:21PM 38.6986 -90.2131 305° West 135 155 1,900 -780 Descending FAA TRACON SMA TRACON (SMA)
05:21PM 38.7056 -90.2281 301° West 130 150 1,700 -780 Descending FAA TRACON SMA TRACON (SMA)
05:22PM 38.7117 -90.2400 303° West 129 148 1,400 -780 Descending FAA TRACON SMA TRACON (SMA)
05:22PM 38.7178 -90.2519 303° West 130 150 1,200 -660 Descending FAA TRACON SMA TRACON (SMA)
05:22PM 38.7253 -90.2669 303° West 130 150 1,000 -780 Descending FAA TRACON SMA TRACON (SMA)
05:23PM 38.7308 -90.2789 301° West 129 148 700 -900 Descending FAA TRACON SMA TRACON (SMA)
05:25PM 38.7487 -90.3700 322° Northwest  Level Estimated